Latest Coastal Weather Observations for Portland Airport

IDV60701

Issued at 2:41 am EST Saturday 5 September 2015 (issued every 10 minutes, with the page automatically refreshed every 10 minutes)

About coastal observations | Map of coastal stations | Coastal observations for VIC | Marine services | Other Formats
Station Details ID: 090171 Name: CASHMORE AIRPORT Lat: -38.31 Lon: 141.47 Height: 80.9 m
Data from the previous 72 hours. | See also: Recent months at Portland Airport
Date/Time
EST
Temp

°C
Wind Pressure Rain
since 9am
mm
Weather Cloud Vis
km
Sea
Height
m
Swell
Dir
 
Speed
knots
Gust
knots
hPa Trend Height
m
Period
s
Dir
05/02:30am 9.0 NNW 3 4 1024.6 - 0.0 - Cloudy 10 - - - -
05/02:00am 9.0 WSW 4 5 1024.8 - 0.0 - Cloudy 10 - - - -
05/01:30am 9.0 WSW 5 6 1024.9 - 0.0 - Cloudy 10 - - - -
05/01:00am 9.5 SW 4 5 1025.1 - 0.0 - Cloudy 10 - - - -
05/12:30am 9.8 SW 5 7 1025.4 - 0.0 - Cloudy 10 - - - -
05/12:00am 9.9 SW 4 5 1025.6 - 0.0 - Cloudy 10 - - - -
 
Date/Time
EST
Temp

°C
Wind Pressure Rain
since 9am
mm
Weather Cloud Vis
km
Sea
Height
m
Swell
Dir
 
Speed
knots
Gust
knots
hPa Trend Height
m
Period
s
Dir
04/11:30pm 9.7 WSW 5 8 1026.0 - 0.0 - Cloudy 10 - - - -
04/11:00pm 9.5 W 3 4 1026.3 - 0.0 - Cloudy 10 - - - -
04/10:30pm 9.6 W 5 6 1026.4 - 0.0 - Cloudy 10 - - - -
04/10:00pm 9.8 SW 6 8 1026.4 - 0.0 - Cloudy 10 - - - -
04/09:30pm 9.7 SW 5 6 1026.3 - 0.0 - Cloudy 10 - - - -
04/09:00pm 9.4 SW 6 9 1026.2 - 0.0 - Cloudy 10 - - - -
04/08:30pm 8.8 W 4 4 1026.1 - 0.0 - Cloudy 10 - - - -
04/08:00pm 8.6 W 5 6 1026.0 - 0.0 - Partly cloudy 10 - - - -
04/07:30pm 8.4 WSW 6 8 1025.9 - 0.0 - Partly cloudy 10 - - - -
04/07:00pm 9.5 WSW 7 12 1025.9 - 0.0 - Partly cloudy 10 - - - -
04/06:30pm 10.4 WSW 7 10 1025.7 - 0.0 - Partly cloudy 10 - - - -
04/06:00pm 10.6 WSW 7 10 1025.6 - 0.0 - Cloudy 10 - - - -
04/05:30pm 10.8 WSW 8 11 1025.5 - 0.0 - Cloudy 10 - - - -
04/05:00pm 10.8 W 8 11 1025.4 - 0.0 - Cloudy 10 - - - -
04/04:30pm 11.0 W 12 15 1025.4 - 0.0 - Cloudy 10 - - - -
04/04:00pm 11.3 W 11 16 1025.4 - 0.0 - Cloudy 10 - - - -
04/03:30pm 12.3 WSW 11 16 1025.3 - 0.0 - Partly cloudy 10 - - - -
04/03:00pm 12.1 WSW 11 15 1025.4 - 0.0 - Mostly cloudy 10 - - - -
04/02:30pm 11.8 WSW 12 15 1025.3 - 0.0 - Partly cloudy 10 - - - -
04/02:00pm 12.1 WSW 11 16 1025.6 - 0.0 - Partly cloudy 10 - - - -
04/01:30pm 11.6 WSW 11 15 1025.8 - 0.0 - Cloudy 10 - - - -
04/01:00pm 12.4 WSW 9 13 1026.0 - 0.0 - Partly cloudy 10 - - - -
04/12:30pm 11.7 W 9 13 1026.3 - 0.0 - Cloudy 10 - - - -
04/12:00pm 12.4 W 9 14 1026.5 - 0.0 - Mostly cloudy 10 - - - -
04/11:30am 11.5 WSW 8 12 1027.0 - 0.0 - Cloudy 10 - - - -
04/11:00am 11.4 WSW 8 10 1027.1 - 0.0 - Partly cloudy 10 - - - -
04/10:30am 10.4 WSW 10 13 1027.3 - 0.0 - Cloudy 10 - - - -
04/10:00am 11.2 W 9 12 1027.2 - 0.0 - Cloudy 10 - - - -
04/09:30am 10.7 W 7 9 1027.3 - 0.0 - Cloudy 10 - - - -
04/09:00am 9.9 W 8 11 1027.3 - 0.8 - Cloudy 10 - - - -
04/08:30am 9.8 S 5 6 1027.1 - 0.8 - Cloudy 10 - - - -
04/08:00am 8.7 S 3 3 1027.0 - 0.8 - Cloudy 10 - - - -
04/07:30am 8.2 S 3 4 1026.6 - 0.8 - Cloudy 10 - - - -
04/07:00am 7.9 S 4 6 1026.4 - 0.8 - Cloudy 10 - - - -
04/06:30am 8.0 S 5 6 1026.3 - 0.8 - Cloudy 10 - - - -
04/06:00am 7.9 S 4 7 1026.0 - 0.8 - Cloudy 10 - - - -
04/05:30am 7.9 S 4 6 1025.8 - 0.8 - Partly cloudy 10 - - - -
04/05:00am 7.8 S 4 6 1025.5 - 0.8 - Cloudy 10 - - - -
04/04:30am 6.6 SSE 3 6 1025.3 - 0.8 - Cloudy 10 - - - -
04/04:00am 6.0 SSE 3 4 1025.3 - 0.8 - Cloudy 10 - - - -
04/03:30am 4.8 SSE 2 5 1025.4 - 0.8 - Partly cloudy 10 - - - -
04/03:00am 4.6 CALM 0 0 1025.4 - 0.8 - Partly cloudy 10 - - - -
04/02:30am 4.8 CALM 0 3 1025.4 - 0.8 - Partly cloudy 10 - - - -
04/02:00am 5.3 SSE 3 4 1025.6 - 0.8 - Partly cloudy 10 - - - -
04/01:30am 5.5 SSE 3 4 1025.8 - 0.8 - Partly cloudy 10 - - - -
04/01:00am 5.6 SSE 4 5 1025.8 - 0.8 - Cloudy 10 - - - -
04/12:30am 5.9 SSE 1 3 1025.8 - 0.8 - Partly cloudy 10 - - - -
04/12:00am 6.1 CALM 0 0 1025.7 - 0.8 - Mostly clear 10 - - - -
 
Date/Time
EST
Temp

°C
Wind Pressure Rain
since 9am
mm
Weather Cloud Vis
km
Sea
Height
m
Swell
Dir
 
Speed
knots
Gust
knots
hPa Trend Height
m
Period
s
Dir
03/11:30pm 7.0 CALM 0 5 1025.6 - 0.8 - Partly cloudy 10 - - - -
03/11:00pm 7.4 SSE 3 5 1025.4 - 0.8 - Partly cloudy 10 - - - -
03/10:30pm 7.5 CALM 0 0 1025.3 - 0.8 - Cloudy 10 - - - -
03/10:00pm 7.5 CALM 0 0 1025.3 - 0.8 - Partly cloudy 10 - - - -
03/09:30pm 7.6 CALM 0 0 1025.1 - 0.8 - Partly cloudy 10 - - - -
03/09:00pm 7.7 SSE 3 5 1024.9 - 0.8 - Partly cloudy 10 - - - -
03/08:30pm 7.5 SSE 3 5 1024.7 - 0.8 - Partly cloudy 10 - - - -
03/08:00pm 8.1 SSE 5 6 1024.4 - 0.8 - Partly cloudy 10 - - - -
03/07:30pm 9.3 SSE 6 9 1024.0 - 0.8 - Partly cloudy 10 - - - -
03/07:00pm 10.3 SSE 6 10 1023.7 - 0.8 - Cloudy 10 - - - -
03/06:30pm 10.4 SSE 6 8 1023.3 - 0.8 - Cloudy 10 - - - -
03/06:00pm 10.8 SSE 7 12 1022.8 - 0.8 - Cloudy 10 - - - -
03/05:30pm 10.8 SSE 7 14 1022.5 - 0.8 - Partly cloudy 10 - - - -
03/05:00pm 11.3 SSE 9 13 1022.1 - 0.8 - Partly cloudy 10 - - - -
03/04:30pm 11.4 SSE 7 11 1021.8 - 0.8 - Partly cloudy 10 - - - -
03/04:00pm 11.7 SSE 9 14 1021.4 - 0.8 - Partly cloudy 10 - - - -
03/03:30pm 11.2 SSE 9 15 1021.3 - 0.8 - Partly cloudy 10 - - - -
03/03:00pm 11.7 SSE 10 15 1020.9 - 0.8 - Cloudy 10 - - - -
03/02:30pm 11.7 S 9 15 1020.4 - 0.8 - Partly cloudy 10 - - - -
03/02:06pm 10.8 S 8 15 1020.3 - 0.8 - Partly cloudy 10 - - - -
03/02:00pm 11.0 SSE 8 12 1020.2 - 0.8 - Partly cloudy 9 - - - -
03/01:52pm 11.1 SSE 10 15 1020.1 - 0.6 - Partly cloudy 6 - - - -
03/01:35pm 12.1 SSE 10 14 1020.0 - 0.6 - Partly cloudy 10 - - - -
03/01:30pm 11.6 SSE 10 14 1020.0 - 0.6 - Partly cloudy 10 - - - -
03/01:22pm 11.6 S 10 15 1019.9 - 0.6 - Partly cloudy 10 - - - -
03/01:03pm 11.4 SSE 10 15 1019.8 - 0.6 - Partly cloudy 8 - - - -
03/01:00pm 11.4 SSE 10 18 1019.8 - 0.6 - Partly cloudy 8 - - - -
03/12:48pm 11.4 SSE 10 17 1019.8 - 0.6 - Partly cloudy 10 - - - -
03/12:34pm 11.5 SSE 11 17 1019.8 - 0.6 - Partly cloudy 6 - - - -
03/12:33pm 11.4 SSE 11 17 1019.8 - 0.6 - Partly cloudy 7 - - - -
03/12:30pm 11.5 SSE 11 17 1019.8 - 0.6 - Partly cloudy 9 - - - -
03/12:23pm 12.2 S 9 15 1019.7 - 0.4 - Partly cloudy 10 - - - -
03/12:00pm 12.0 SSE 10 15 1019.8 - 0.4 - Cloudy 10 - - - -
03/11:30am 11.0 SSE 11 17 1019.4 - 0.4 - Partly cloudy 10 - - - -
03/11:12am 11.5 SSE 9 14 1019.2 - 0.4 - Partly cloudy 10 - - - -
03/11:11am 11.5 SSE 9 14 1019.1 - 0.4 - Partly cloudy 10 - - - -
03/11:00am 11.4 SSE 10 18 1019.0 - 0.4 - Partly cloudy 10 - - - -
03/10:30am 11.6 SSE 11 18 1018.7 - 0.4 - Partly cloudy 10 - - - -
03/10:00am 11.7 SSE 10 18 1018.1 - 0.4 - Cloudy 10 - - - -
03/09:30am 11.9 SSE 10 16 1017.5 - 0.0 - Partly cloudy 10 - - - -
03/09:00am 12.4 S 8 11 1016.7 - 3.6 Rain Cloudy 10 - - - -
03/08:50am 12.2 S 8 11 1016.6 - 3.4 - Partly cloudy 10 - - - -
03/08:30am 12.0 SSE 7 10 1016.2 - 3.4 - Partly cloudy 10 - - - -
03/08:00am 11.8 S 8 11 1015.6 - 3.4 - Partly cloudy 10 - - - -
03/07:30am 11.6 SSE 7 12 1014.8 - 3.4 - Partly cloudy 10 - - - -
03/07:09am 11.6 SSE 7 12 1014.1 - 3.4 - Partly cloudy 10 - - - -
03/07:04am 11.6 SSE 8 13 1014.0 - 3.4 - Partly cloudy 10 - - - -
03/07:00am 11.5 SSE 8 13 1014.0 - 3.4 - Partly cloudy 10 - - - -
03/06:30am 11.5 S 7 11 1013.2 - 3.4 - Partly cloudy 10 - - - -
03/06:00am 11.1 SSE 7 10 1012.7 - 3.4 - Cloudy 10 - - - -
03/05:30am 11.1 SSE 8 12 1012.0 - 3.4 - Partly cloudy 10 - - - -
03/05:00am 10.9 SSE 7 11 1011.4 - 3.4 - Partly cloudy 10 - - - -
03/04:30am 10.9 SSE 6 10 1011.0 - 3.4 - Partly cloudy 10 - - - -
03/04:09am 10.7 SSE 6 9 1010.7 - 3.4 - Partly cloudy 10 - - - -
03/04:00am 10.7 S 6 10 1010.6 - 3.4 - Partly cloudy 10 - - - -
03/03:30am 10.6 S 7 11 1010.2 - 3.4 - Partly cloudy 10 - - - -
03/03:00am 10.4 SSE 5 8 1010.1 - 3.4 - Cloudy 10 - - - -
03/02:30am 10.2 S 5 7 1010.2 - 3.4 - Partly cloudy 10 - - - -
03/02:00am 9.7 SW 4 6 1009.9 - 3.4 - Partly cloudy 10 - - - -
03/01:30am 9.6 CALM 0 0 1009.7 - 3.4 - Partly cloudy 10 - - - -
03/01:00am 9.7 SW 2 3 1009.9 - 3.4 - Partly cloudy 10 - - - -
03/12:30am 9.8 SW 4 5 1009.5 - 3.4 - Partly cloudy 10 - - - -
03/12:21am 9.9 SW 3 5 1009.5 - 3.4 - Partly cloudy 10 - - - -
03/12:03am 9.8 CALM 0 0 1009.5 - 3.4 - Partly cloudy 10 - - - -
03/12:00am 9.8 CALM 0 0 1009.5 - 3.4 - Cloudy 10 - - - -
 
Date/Time
EST
Temp

°C
Wind Pressure Rain
since 9am
mm
Weather Cloud Vis
km
Sea
Height
m
Swell
Dir
 
Speed
knots
Gust
knots
hPa Trend Height
m
Period
s
Dir
02/11:30pm 9.7 CALM 0 0 1009.4 - 3.4 - Cloudy 7 - - - -
02/11:00pm 9.5 CALM 0 0 1009.1 - 3.4 - Cloudy 8 - - - -
02/10:30pm 9.8 SW 3 4 1008.7 - 3.4 - Partly cloudy 10 - - - -
02/10:00pm 9.7 SW 4 5 1008.6 - 3.4 - Partly cloudy 10 - - - -
02/09:30pm 9.7 SW 3 5 1008.5 - 3.4 - Partly cloudy 10 - - - -
02/09:00pm 9.6 CALM 0 0 1008.2 - 3.0 - Cloudy 10 - - - -
02/08:30pm 9.8 NNE 3 4 1008.0 - 3.0 - Partly cloudy 10 - - - -
02/08:09pm 9.9 CALM 0 0 1007.9 - 3.0 - Partly cloudy 10 - - - -
02/08:00pm 9.9 CALM 0 0 1007.8 - 3.0 - Partly cloudy 10 - - - -
02/07:30pm 10.0 CALM 0 0 1007.7 - 3.0 - Partly cloudy 10 - - - -
02/07:23pm 10.1 CALM 0 0 1007.6 - 3.0 - Partly cloudy 10 - - - -
02/07:21pm 10.1 CALM 0 0 1007.6 - 3.0 - Partly cloudy 10 - - - -
02/07:00pm 10.0 NNW 3 4 1007.5 - 3.0 - Partly cloudy 10 - - - -
02/06:34pm 10.0 N 3 3 1007.0 - 3.0 - Partly cloudy 10 - - - -
02/06:30pm 10.0 NNE 2 4 1006.8 - 3.0 - Partly cloudy 10 - - - -
02/06:00pm 10.1 NNE 7 8 1006.1 - 3.0 - Cloudy 10 - - - -
02/05:30pm 10.2 NE 7 9 1005.6 - 3.0 - Partly cloudy 10 - - - -
02/05:00pm 10.5 ENE 6 10 1005.2 - 3.0 - Partly cloudy 10 - - - -
02/04:30pm 10.5 NE 7 11 1005.0 - 2.8 - Cloudy 10 - - - -
02/04:00pm 10.7 NE 9 13 1005.2 - 2.6 - Cloudy 10 - - - -
02/03:30pm 10.7 NE 7 13 1005.1 - 2.6 - Partly cloudy 10 - - - -
02/03:00pm 10.9 NE 7 11 1005.2 - 2.2 Recent precip. Cloudy 10 - - - -
02/02:30pm 11.1 NE 8 12 1005.2 - 2.0 - Partly cloudy 10 - - - -
02/02:00pm 11.7 NNE 10 13 1005.5 - 1.8 - Partly cloudy 10 - - - -
02/01:30pm 11.6 N 9 14 1006.3 - 1.6 - Partly cloudy 10 - - - -
02/01:00pm 11.7 NNE 9 15 1006.8 - 1.6 - Partly cloudy 10 - - - -
02/12:30pm 11.5 NNE 8 12 1007.0 - 1.6 - Partly cloudy 10 - - - -
02/12:00pm 11.0 NE 7 10 1007.5 - 1.6 - Cloudy 10 - - - -
02/11:30am 10.8 NE 5 9 1007.3 - 1.6 - Partly cloudy 10 - - - -
02/11:00am 10.0 NE 4 6 1007.5 - 1.6 - Partly cloudy 10 - - - -
02/10:30am 10.4 NNE 7 11 1007.8 - 0.8 - Partly cloudy 10 - - - -
02/10:00am 11.6 NNE 7 13 1008.1 - 0.0 - Partly cloudy 10 - - - -
02/09:30am 11.0 NNE 7 11 1008.2 - 0.0 - Partly cloudy 10 - - - -
02/09:00am 11.6 NE 7 10 1007.8 - 0.2 - Mostly cloudy 10 - - - -
02/08:30am 11.4 NE 6 9 1007.8 - 0.2 - Cloudy 10 - - - -
02/08:00am 10.9 NE 5 7 1007.9 - 0.2 - Partly cloudy 10 - - - -
02/07:30am 10.9 NE 5 9 1007.5 - 0.2 - Cloudy 10 - - - -
02/07:00am 10.9 NE 6 8 1007.8 - 0.2 - Partly cloudy 10 - - - -
02/06:30am 11.0 NE 6 9 1007.7 - 0.2 - Cloudy 10 - - - -
02/06:00am 11.1 NNE 5 8 1008.0 - 0.2 - Cloudy 10 - - - -
02/05:30am 11.0 NE 5 7 1007.9 - 0.2 - Cloudy 10 - - - -
02/05:00am 10.4 NNE 4 5 1008.2 - 0.2 - Cloudy 10 - - - -
02/04:30am 10.1 NNW 4 5 1008.3 - 0.2 - Partly cloudy 10 - - - -
02/04:00am 10.7 N 5 7 1008.4 - 0.2 - Cloudy 10 - - - -
02/03:30am 10.9 N 6 9 1008.4 - 0.2 - Partly cloudy 10 - - - -
02/03:00am 11.4 N 6 9 1008.9 - 0.0 - Cloudy 10 - - - -

Other Formats:

Comma delimited format used in spreadsheet applications
http://www.bom.gov.au/fwo/IDV60701/IDV60701.94828.axf

JavaScript Object Notation format (JSON) in row-major order
http://www.bom.gov.au/fwo/IDV60701/IDV60701.94828.json